This demonstration page uses our WeatherBlox Daily Observations layout. Learn more.

39.92423, -83.80882

Hourly Observations for September 26, 2017

Temp ( °F °C ) Dew Point ( °F °C ) Humidity (%) Winds ( mph kmh ) Pressure ( in mb ) Visibility ( mi km ) Precip ( " mm )
12:56 am 00:56 Clear 67 19.4 61 16.1 81 81 SSE 5 7 29.97 1015 10 16.09344 0 0
1:56 am 01:56 Clear 64 17.8 61 16.1 90 90 SSE 3 6 30 1016 10 16.09344 0 0
2:56 am 02:56 Clear 61 16.1 59 15 93 93 Calm 30 1016 10 16.09344 0 0
3:56 am 03:56 Clear 61 16.1 60 15.6 97 97 Calm 30 1016 10 16.09344 0 0
4:56 am 04:56 Clear 61 16.1 58 14.4 90 90 Calm 30 1016 10 16.09344 0 0
5:56 am 05:56 Clear 61 16.1 60 15.6 97 97 Calm 30 1016 10 16.09344 0 0
6:56 am 06:56 Clear 60 15.6 58 14.4 93 93 Calm 30 1016 10 16.09344 0 0
7:56 am 07:56 Sunny 59 15 58 14.4 96 96 ESE 5 7 30.03 1017 10 16.09344 0 0
8:56 am 08:56 Sunny 68 20 63 17.2 84 84 Calm 30.03 1017 10 16.09344 0 0
9:56 am 09:56 Sunny 78 25.6 64 17.8 62 62 WSW 3 6 30.03 1017 10 16.09344 0 0
10:56 am 10:56 Sunny 82 27.8 65 18.3 56 56 SW 5 7 30.03 1017 10 16.09344 0 0
11:56 am 11:56 Sunny 83 28.3 63 17.2 51 51 W 7 11 30.03 1017 10 16.09344 0 0
12:56 pm 12:56 Sunny 84 28.9 63 17.2 49 49 Calm 30 1016 10 16.09344 0 0
1:56 pm 13:56 Sunny 86 30 63 17.2 46 46 NNE 6 9 30 1016 10 16.09344 0 0
2:56 pm 14:56 Sunny 88 31.1 62 16.7 42 42 W 5 7 29.97 1015 10 16.09344 0 0
3:56 pm 15:56 Sunny 87 30.6 60 15.6 40 40 NNE 3 6 29.94 1014 10 16.09344 0 0
4:56 pm 16:56 Sunny 89 31.7 61 16.1 39 39 WNW 7 11 29.94 1014 10 16.09344 0 0
5:56 pm 17:56 Sunny 87 30.6 59 15 39 39 Calm 29.94 1014 10 16.09344 0 0
6:56 pm 18:56 Sunny 83 28.3 60 15.6 46 46 Calm 29.94 1014 10 16.09344 0 0
7:56 pm 19:56 Clear 76 24.4 60 15.6 58 58 W 3 6 29.94 1014 10 16.09344 0 0
8:56 pm 20:56 Clear 69 20.6 61 16.1 76 76 Calm 29.97 1015 10 16.09344 0 0
9:56 pm 21:56 Clear 68 20 61 16.1 78 78 Calm 29.97 1015 10 16.09344 0 0
10:56 pm 22:56 Clear 65 18.3 61 16.1 87 87 Calm 29.97 1015 10 16.09344 0 0
11:56 pm 23:56 Clear 65 18.3 61 16.1 87 87 Calm 29.97 1015 10 16.09344 0 0

Powered by AerisWeather